< < Back
Terminal Aerodrome Forecast


Current Version              Previous Versions:   1  2  3  4  5  6  7  8  9  

Terminal Aerodrome Forecast

359
FTUS42 KGSP 242338
TAFHKY
TAF
KHKY 242338Z 2500/2524 19005KT P6SM SCT250
     FM250300 00000KT P6SM BKN250
     FM251000 00000KT P6SM VCSH OVC045
     FM251200 16003KT 6SM -RA BR OVC015
     FM251400 16004KT 2SM -RA BR OVC008
     FM251700 18006KT 1 1/2SM -RA BR OVC005
     FM252200 19005KT 4SM -SHRA BR OVC008=



Latest METAR

143
SAUS70 KWBC 251100 RRF
MTRHKY
METAR KHKY 251053Z VRB04KT 10SM CLR 13/05 A2986 RMK AO2 SLP094
T01330050


USA.gov is the U.S. government's official web portal to all federal, state and local government web resources and services.